Terminal Aerodrome Forecast
Issued by NWS

Home | Current Version | Previous Version | Text Only | Print | Product List | Glossary On
Versions: 1 2 3 4 5 6 7 8 9 10 11 12 13 14 15 16 17
000
FTUS46 KLOX 301740
TAFOXR
TAF
KOXR 301740Z 3018/3118 VRB05KT P6SM SCT250
     FM302000 27015KT P6SM SCT250
     FM302200 28025G35KT P6SM SCT250
     FM310300 28015G25KT P6SM SKC
     FM310600 32010KT P6SM SKC
     FM311200 34011KT P6SM SKC=

USA.gov is the U.S. government's official web portal to all federal, state and local government web resources and services.